createdAt,value
2023-02-19T00:00:00.155Z,9.48
2023-02-19T00:02:28.501Z,9.52
2023-02-19T00:04:56.500Z,9.56
2023-02-19T00:07:24.316Z,9.59
2023-02-19T00:09:52.160Z,9.60
2023-02-19T00:12:20.021Z,9.60
2023-02-19T00:14:47.891Z,9.58
2023-02-19T00:17:15.742Z,9.61
2023-02-19T00:19:43.512Z,9.64
2023-02-19T00:22:12.311Z,9.65
2023-02-19T00:24:40.303Z,9.67
2023-02-19T00:27:08.298Z,9.68
2023-02-19T00:29:36.255Z,9.67
2023-02-19T00:32:04.672Z,9.66
2023-02-19T00:34:32.541Z,9.63
2023-02-19T00:37:00.451Z,9.56
2023-02-19T00:39:28.506Z,9.52
2023-02-19T00:41:56.467Z,9.44
2023-02-19T00:44:24.279Z,9.38
2023-02-19T00:46:52.155Z,9.32
2023-02-19T00:49:23.222Z,9.28
2023-02-19T00:51:53.234Z,9.28
2023-02-19T00:54:23.071Z,9.25
2023-02-19T00:56:51.778Z,9.24
2023-02-19T00:59:19.795Z,9.23
2023-02-19T01:01:47.719Z,9.21
2023-02-19T01:04:16.492Z,9.20
2023-02-19T01:06:44.399Z,9.21
2023-02-19T01:09:12.308Z,9.22
2023-02-19T01:11:40.528Z,9.21
2023-02-19T01:14:10.657Z,9.21
2023-02-19T01:16:38.579Z,9.20
2023-02-19T01:19:06.421Z,9.18
2023-02-19T01:21:34.317Z,9.16
2023-02-19T01:24:02.381Z,9.16
2023-02-19T01:26:32.966Z,9.14
2023-02-19T01:29:02.301Z,9.10
2023-02-19T01:31:31.055Z,9.08
2023-02-19T01:34:02.563Z,9.04
2023-02-19T01:36:34.275Z,8.98
2023-02-19T01:39:05.625Z,8.92
2023-02-19T01:41:38.951Z,8.89
2023-02-19T01:44:17.886Z,8.85
2023-02-19T01:46:48.504Z,8.80
2023-02-19T01:49:48.927Z,8.78
2023-02-19T01:52:34.206Z,8.78
2023-02-19T01:55:07.483Z,8.77
2023-02-19T01:57:43.913Z,8.76
2023-02-19T02:00:15.826Z,8.72
2023-02-19T02:02:51.106Z,8.71
2023-02-19T02:06:02.412Z,8.73
2023-02-19T02:08:51.799Z,8.74
2023-02-19T02:11:22.060Z,8.72
2023-02-19T02:13:51.556Z,8.71
2023-02-19T02:16:57.436Z,8.70
2023-02-19T02:19:46.491Z,8.68
2023-02-19T02:22:29.467Z,8.69
2023-02-19T02:25:17.368Z,8.71
2023-02-19T02:28:06.690Z,8.71
2023-02-19T02:30:45.010Z,8.69
2023-02-19T02:33:43.492Z,8.65
2023-02-19T02:36:31.048Z,8.65
2023-02-19T02:39:03.474Z,8.65
2023-02-19T02:41:33.592Z,8.65
2023-02-19T02:44:02.014Z,8.65
2023-02-19T02:46:38.739Z,8.63
2023-02-19T02:49:16.152Z,8.65
2023-02-19T02:51:52.774Z,8.69
2023-02-19T02:54:50.190Z,8.73
2023-02-19T02:57:20.101Z,8.80
2023-02-19T02:59:52.120Z,8.87
2023-02-19T03:02:30.644Z,8.94
2023-02-19T03:05:40.487Z,8.98
2023-02-19T03:08:19.889Z,8.99
2023-02-19T03:11:20.190Z,9.00
2023-02-19T03:14:09.585Z,9.03
2023-02-19T03:17:00.247Z,9.01
2023-02-19T03:19:33.285Z,8.94
2023-02-19T03:22:19.954Z,8.86
2023-02-19T03:25:23.850Z,8.80
2023-02-19T03:27:54.320Z,8.74
2023-02-19T03:30:29.488Z,8.71
2023-02-19T03:33:08.289Z,8.66
2023-02-19T03:35:49.910Z,8.62
2023-02-19T03:38:30.023Z,8.59
2023-02-19T03:41:23.400Z,8.59
2023-02-19T03:44:09.825Z,8.56
2023-02-19T03:46:58.292Z,8.58
2023-02-19T03:49:42.155Z,8.59
2023-02-19T03:52:56.343Z,8.62
2023-02-19T03:55:49.102Z,8.64
2023-02-19T03:59:05.564Z,8.66
2023-02-19T04:02:16.984Z,8.69
2023-02-19T04:05:02.812Z,8.69
2023-02-19T04:07:38.865Z,8.72
2023-02-19T04:10:09.236Z,8.76
2023-02-19T04:12:45.812Z,8.81
2023-02-19T04:15:21.856Z,8.85
2023-02-19T04:18:18.775Z,8.89
2023-02-19T04:20:48.542Z,8.94
2023-02-19T04:23:22.624Z,8.96
2023-02-19T04:25:56.805Z,9.00
2023-02-19T04:28:24.696Z,9.04
2023-02-19T04:30:52.750Z,9.06
2023-02-19T04:33:20.564Z,9.06
2023-02-19T04:35:48.398Z,9.09
2023-02-19T04:38:16.304Z,9.09
2023-02-19T04:40:44.140Z,9.09
2023-02-19T04:43:11.927Z,9.08
2023-02-19T04:45:39.785Z,9.08
2023-02-19T04:48:07.644Z,9.10
2023-02-19T04:50:39.528Z,9.10
2023-02-19T04:53:08.124Z,9.10
2023-02-19T04:55:39.541Z,9.10
2023-02-19T04:58:07.449Z,9.07
2023-02-19T05:00:35.297Z,9.04
2023-02-19T05:03:03.148Z,9.02
2023-02-19T05:05:31.134Z,9.01
2023-02-19T05:07:58.925Z,9.01
2023-02-19T05:10:26.812Z,9.03
2023-02-19T05:12:57.859Z,9.04
2023-02-19T05:15:25.955Z,9.04
2023-02-19T05:17:53.760Z,9.04
2023-02-19T05:20:23.037Z,9.05
2023-02-19T05:22:50.955Z,9.07
2023-02-19T05:25:18.727Z,9.09
2023-02-19T05:27:46.570Z,9.11
2023-02-19T05:30:14.635Z,9.13
2023-02-19T05:32:42.414Z,9.11
2023-02-19T05:35:10.532Z,9.09
2023-02-19T05:37:38.363Z,9.03
2023-02-19T05:40:06.434Z,8.94
2023-02-19T05:42:34.317Z,8.86
2023-02-19T05:45:02.255Z,8.81
2023-02-19T05:47:30.075Z,8.76
2023-02-19T05:49:57.880Z,8.69
2023-02-19T05:52:25.674Z,8.62
2023-02-19T05:54:53.596Z,8.57
2023-02-19T05:57:21.562Z,8.54
2023-02-19T05:59:49.414Z,8.50
2023-02-19T06:02:17.211Z,8.47
2023-02-19T06:04:44.979Z,8.46
2023-02-19T06:07:12.883Z,8.44
2023-02-19T06:09:40.680Z,8.44
2023-02-19T06:12:08.464Z,8.44
2023-02-19T06:14:36.222Z,8.43
2023-02-19T06:17:04.013Z,8.39
2023-02-19T06:19:31.900Z,8.34
2023-02-19T06:21:59.757Z,8.31
2023-02-19T06:24:27.670Z,8.29
2023-02-19T06:26:55.481Z,8.26
2023-02-19T06:29:23.328Z,8.22
2023-02-19T06:31:51.453Z,8.18
2023-02-19T06:34:19.364Z,8.14
2023-02-19T06:36:49.603Z,8.10
2023-02-19T06:39:17.552Z,8.06
2023-02-19T06:41:45.345Z,8.03
2023-02-19T06:44:13.288Z,8.02
2023-02-19T06:46:41.452Z,8.02
2023-02-19T06:49:09.427Z,8.02
2023-02-19T06:51:37.262Z,8.04
2023-02-19T06:54:05.134Z,8.03
2023-02-19T06:56:41.918Z,8.03
2023-02-19T06:59:18.848Z,8.03
2023-02-19T07:01:46.825Z,8.01
2023-02-19T07:04:14.864Z,8.02
2023-02-19T07:06:42.922Z,8.06
2023-02-19T07:09:11.942Z,8.09
2023-02-19T07:11:40.308Z,8.13
2023-02-19T07:14:15.684Z,8.15
2023-02-19T07:16:44.637Z,8.19
2023-02-19T07:19:12.868Z,8.23
2023-02-19T07:21:42.335Z,8.25
2023-02-19T07:24:10.526Z,8.27
2023-02-19T07:26:38.592Z,8.27
2023-02-19T07:29:07.549Z,8.29
2023-02-19T07:31:35.475Z,8.32
2023-02-19T07:34:03.438Z,8.33
2023-02-19T07:36:31.295Z,8.35
2023-02-19T07:39:00.193Z,8.35
2023-02-19T07:41:28.437Z,8.33
2023-02-19T07:43:58.640Z,8.33
2023-02-19T07:46:26.843Z,8.35
2023-02-19T07:48:54.702Z,8.36
2023-02-19T07:51:23.147Z,8.36
2023-02-19T07:53:51.701Z,8.38
2023-02-19T07:56:20.840Z,8.40
2023-02-19T07:58:49.649Z,8.42
2023-02-19T08:01:42.294Z,8.44
2023-02-19T08:04:13.525Z,8.46
2023-02-19T08:06:42.777Z,8.48
2023-02-19T08:09:11.384Z,8.49
2023-02-19T08:11:57.977Z,8.50
2023-02-19T08:14:29.349Z,8.51
2023-02-19T08:16:57.503Z,8.51
2023-02-19T08:19:25.412Z,8.51
2023-02-19T08:21:53.680Z,8.49
2023-02-19T08:24:21.592Z,8.48
2023-02-19T08:26:49.661Z,8.51
2023-02-19T08:29:17.557Z,8.52
2023-02-19T08:31:45.625Z,8.48
2023-02-19T08:34:13.536Z,8.45
2023-02-19T08:36:41.393Z,8.44
2023-02-19T08:39:09.358Z,8.46
2023-02-19T08:41:37.326Z,8.47
2023-02-19T08:44:05.304Z,8.46
2023-02-19T08:46:34.406Z,8.48
2023-02-19T08:49:02.501Z,8.50
2023-02-19T08:51:30.444Z,8.51
2023-02-19T08:53:58.327Z,8.55
2023-02-19T08:56:26.200Z,8.59
2023-02-19T08:58:54.147Z,8.66
2023-02-19T09:01:22.038Z,8.70
2023-02-19T09:03:49.946Z,8.74
2023-02-19T09:06:20.699Z,8.80
2023-02-19T09:08:48.718Z,8.80
2023-02-19T09:11:17.106Z,8.84
2023-02-19T09:13:45.145Z,8.81
2023-02-19T09:16:13.226Z,8.81
2023-02-19T09:18:41.182Z,8.83
2023-02-19T09:21:09.350Z,8.83
2023-02-19T09:23:37.997Z,8.90
2023-02-19T09:26:09.328Z,8.98
2023-02-19T09:28:39.677Z,9.06
2023-02-19T09:31:11.660Z,9.11
2023-02-19T09:33:44.665Z,9.18
2023-02-19T09:36:14.634Z,9.22
2023-02-19T09:38:43.276Z,9.20
2023-02-19T09:41:28.828Z,9.27
2023-02-19T09:44:03.408Z,9.40
2023-02-19T09:46:52.441Z,9.48
2023-02-19T09:49:36.696Z,9.39
2023-02-19T09:52:22.201Z,9.34
2023-02-19T09:54:51.617Z,9.36
2023-02-19T09:57:21.687Z,9.39
2023-02-19T10:00:00.307Z,9.39
2023-02-19T10:02:30.235Z,9.43
2023-02-19T10:04:59.053Z,9.44
2023-02-19T10:07:44.511Z,9.58
2023-02-19T10:10:15.291Z,9.81
2023-02-19T10:12:50.570Z,9.93
2023-02-19T10:15:33.790Z,9.95
2023-02-19T10:18:04.292Z,10.03
2023-02-19T10:20:32.412Z,10.18
2023-02-19T10:23:06.256Z,10.35
2023-02-19T10:25:36.431Z,10.41
2023-02-19T10:28:07.098Z,10.44
2023-02-19T10:30:36.134Z,10.65
2023-02-19T10:33:16.483Z,10.84
2023-02-19T10:36:07.942Z,10.96
2023-02-19T10:38:40.282Z,11.08
2023-02-19T10:41:17.795Z,11.07
2023-02-19T10:44:14.335Z,11.08
2023-02-19T10:46:47.122Z,11.13
2023-02-19T10:49:23.000Z,11.16
2023-02-19T10:51:55.015Z,11.15
2023-02-19T10:54:32.554Z,11.21
2023-02-19T10:57:15.685Z,11.23
2023-02-19T10:59:58.177Z,11.23
2023-02-19T11:02:28.408Z,11.31
2023-02-19T11:05:12.098Z,11.28
2023-02-19T11:07:50.409Z,11.17
2023-02-19T11:10:28.689Z,11.16
2023-02-19T11:13:01.611Z,11.30
2023-02-19T11:15:35.519Z,11.34
2023-02-19T11:18:31.979Z,11.19
2023-02-19T11:21:03.695Z,10.93
2023-02-19T11:23:45.692Z,10.91
2023-02-19T11:26:24.146Z,10.99
2023-02-19T11:28:58.730Z,11.07
2023-02-19T11:31:36.050Z,11.11
2023-02-19T11:34:24.623Z,11.14
2023-02-19T11:37:31.027Z,11.17
2023-02-19T11:39:58.956Z,11.31
2023-02-19T11:42:48.390Z,11.41
2023-02-19T11:45:38.826Z,11.42
2023-02-19T11:48:37.694Z,11.57
2023-02-19T11:51:30.380Z,11.66
2023-02-19T11:54:40.021Z,11.70
2023-02-19T11:57:29.056Z,11.80
2023-02-19T12:00:18.460Z,11.91
2023-02-19T12:03:01.190Z,12.05
2023-02-19T12:05:48.214Z,12.13
2023-02-19T12:08:28.047Z,12.20
2023-02-19T12:11:30.294Z,12.26
2023-02-19T12:14:32.651Z,12.34
2023-02-19T12:17:34.046Z,12.35
2023-02-19T12:20:23.930Z,12.38
2023-02-19T12:23:13.024Z,12.36
2023-02-19T12:26:08.927Z,12.32
2023-02-19T12:28:49.019Z,12.38
2023-02-19T12:32:34.511Z,12.41
2023-02-19T12:35:32.382Z,12.41
2023-02-19T12:38:47.717Z,12.46
2023-02-19T12:41:24.678Z,12.64
2023-02-19T12:44:09.016Z,12.68
2023-02-19T12:46:43.145Z,12.74
2023-02-19T12:49:21.761Z,12.80
2023-02-19T12:51:57.507Z,12.84
2023-02-19T12:54:30.576Z,12.85
2023-02-19T12:57:13.478Z,12.80
2023-02-19T13:00:25.008Z,12.69
2023-02-19T13:03:20.920Z,12.72
2023-02-19T13:06:18.747Z,12.77
2023-02-19T13:09:23.793Z,12.77
2023-02-19T13:12:01.945Z,12.72
2023-02-19T13:14:40.369Z,12.71
2023-02-19T13:17:20.333Z,12.71
2023-02-19T13:19:55.605Z,12.71
2023-02-19T13:23:01.253Z,12.70
2023-02-19T13:26:23.585Z,12.68
2023-02-19T13:30:04.548Z,12.61
2023-02-19T13:32:52.552Z,12.67
2023-02-19T13:35:35.497Z,12.80
2023-02-19T13:40:42.498Z,12.93
2023-02-19T13:43:42.868Z,12.97
2023-02-19T13:46:16.433Z,12.95
2023-02-19T13:48:44.599Z,12.90
2023-02-19T13:51:24.686Z,12.88
2023-02-19T13:54:13.873Z,12.87
2023-02-19T13:56:42.215Z,12.77
2023-02-19T13:59:22.108Z,12.70
2023-02-19T14:01:52.804Z,12.74
2023-02-19T14:04:43.079Z,12.81
2023-02-19T14:07:10.928Z,12.83
2023-02-19T14:09:43.750Z,12.81
2023-02-19T14:12:15.850Z,12.81
2023-02-19T14:14:55.740Z,12.86
2023-02-19T14:17:35.730Z,12.86
2023-02-19T14:20:09.739Z,12.89
2023-02-19T14:22:53.108Z,12.91
2023-02-19T14:25:58.303Z,12.95
2023-02-19T14:28:36.329Z,13.03
2023-02-19T14:31:22.464Z,13.03
2023-02-19T14:33:55.207Z,13.02
2023-02-19T14:36:56.704Z,13.02
2023-02-19T14:39:26.767Z,13.02
2023-02-19T14:42:01.700Z,13.07
2023-02-19T14:44:43.983Z,13.14
2023-02-19T14:47:18.894Z,13.13
2023-02-19T14:50:07.415Z,13.09
2023-02-19T14:52:48.303Z,13.10
2023-02-19T14:55:35.025Z,13.09
2023-02-19T14:58:21.260Z,13.11
2023-02-19T15:00:49.210Z,13.13
2023-02-19T15:03:34.883Z,13.17
2023-02-19T15:06:14.181Z,13.23
2023-02-19T15:08:48.525Z,13.26
2023-02-19T15:11:28.646Z,13.29
2023-02-19T15:14:02.759Z,13.34
2023-02-19T15:16:34.299Z,13.36
2023-02-19T15:19:08.230Z,13.33
2023-02-19T15:21:48.010Z,13.35
2023-02-19T15:24:18.916Z,13.35
2023-02-19T15:26:55.562Z,13.38
2023-02-19T15:29:27.223Z,13.43
2023-02-19T15:31:59.745Z,13.44
2023-02-19T15:34:32.140Z,13.41
2023-02-19T15:37:09.169Z,13.37
2023-02-19T15:39:44.712Z,13.36
2023-02-19T15:42:25.053Z,13.34
2023-02-19T15:45:03.288Z,13.38
2023-02-19T15:48:03.184Z,13.42
2023-02-19T15:50:36.009Z,13.40
2023-02-19T15:53:23.265Z,13.43
2023-02-19T15:56:11.654Z,13.41
2023-02-19T15:58:50.652Z,13.39
2023-02-19T16:01:25.700Z,13.38
2023-02-19T16:03:55.416Z,13.39
2023-02-19T16:06:29.063Z,13.38
2023-02-19T16:09:06.051Z,13.35
2023-02-19T16:11:53.458Z,13.30
2023-02-19T16:14:32.707Z,13.21
2023-02-19T16:17:15.580Z,13.16
2023-02-19T16:19:43.689Z,13.08
2023-02-19T16:22:17.000Z,13.05
2023-02-19T16:24:52.877Z,12.99
2023-02-19T16:27:40.518Z,12.92
2023-02-19T16:30:15.180Z,12.83
2023-02-19T16:32:45.463Z,12.75
2023-02-19T16:35:42.691Z,12.67
2023-02-19T16:38:19.985Z,12.57
2023-02-19T16:40:50.999Z,12.50
2023-02-19T16:43:30.691Z,12.45
2023-02-19T16:46:00.658Z,12.37
2023-02-19T16:48:28.820Z,12.29
2023-02-19T16:50:56.924Z,12.20
2023-02-19T16:53:25.471Z,12.09
2023-02-19T16:55:53.336Z,11.98
2023-02-19T16:58:21.480Z,11.93
2023-02-19T17:00:49.432Z,11.84
2023-02-19T17:03:25.068Z,11.75
2023-02-19T17:05:53.365Z,11.67
2023-02-19T17:08:28.178Z,11.59
2023-02-19T17:10:56.316Z,11.52
2023-02-19T17:13:24.227Z,11.45
2023-02-19T17:15:52.313Z,11.39
2023-02-19T17:18:20.291Z,11.32
2023-02-19T17:21:12.518Z,11.27
2023-02-19T17:23:40.489Z,11.19
2023-02-19T17:26:19.343Z,11.13
2023-02-19T17:28:48.295Z,11.04
2023-02-19T17:31:16.753Z,10.98
2023-02-19T17:33:46.807Z,10.93
2023-02-19T17:36:19.897Z,10.85
2023-02-19T17:38:48.111Z,10.80
2023-02-19T17:41:15.995Z,10.74
2023-02-19T17:43:43.910Z,10.68
2023-02-19T17:46:22.101Z,10.64
2023-02-19T17:48:50.864Z,10.58
2023-02-19T17:51:18.700Z,10.50
2023-02-19T17:53:46.746Z,10.42
2023-02-19T17:56:25.445Z,10.37
2023-02-19T17:58:55.235Z,10.32
2023-02-19T18:01:23.959Z,10.27
2023-02-19T18:03:53.161Z,10.19
2023-02-19T18:06:21.063Z,10.13
2023-02-19T18:08:52.215Z,10.10
2023-02-19T18:11:22.706Z,10.05
2023-02-19T18:13:52.273Z,10.02
2023-02-19T18:16:21.143Z,10.00
2023-02-19T18:18:49.040Z,9.97
2023-02-19T18:21:16.957Z,9.97
2023-02-19T18:23:46.721Z,9.94
2023-02-19T18:26:21.300Z,9.90
2023-02-19T18:28:49.222Z,9.86
2023-02-19T18:31:17.199Z,9.82
2023-02-19T18:33:45.162Z,9.79
2023-02-19T18:36:13.239Z,9.73
2023-02-19T18:38:41.155Z,9.68
2023-02-19T18:41:19.816Z,9.62
2023-02-19T18:43:48.640Z,9.56
2023-02-19T18:46:21.114Z,9.49
2023-02-19T18:48:49.086Z,9.44
2023-02-19T18:51:16.909Z,9.39
2023-02-19T18:53:44.737Z,9.35
2023-02-19T18:56:12.573Z,9.28
2023-02-19T18:58:40.806Z,9.23
2023-02-19T19:01:09.547Z,9.20
2023-02-19T19:03:37.540Z,9.17
2023-02-19T19:06:05.601Z,9.14
2023-02-19T19:08:33.656Z,9.10
2023-02-19T19:11:01.422Z,9.05
2023-02-19T19:13:29.472Z,9.03
2023-02-19T19:15:57.392Z,9.04
2023-02-19T19:18:25.419Z,9.01
2023-02-19T19:20:56.612Z,8.95
2023-02-19T19:23:24.542Z,8.91
2023-02-19T19:25:53.994Z,8.89
2023-02-19T19:28:23.071Z,8.83
2023-02-19T19:30:51.141Z,8.80
2023-02-19T19:33:19.326Z,8.77
2023-02-19T19:35:48.122Z,8.72
2023-02-19T19:38:16.117Z,8.68
2023-02-19T19:40:44.111Z,8.65
2023-02-19T19:43:12.979Z,8.59
2023-02-19T19:45:40.900Z,8.55
2023-02-19T19:48:08.863Z,8.49
2023-02-19T19:50:36.777Z,8.44
2023-02-19T19:53:04.616Z,8.42
2023-02-19T19:55:32.395Z,8.40
2023-02-19T19:58:00.993Z,8.38
2023-02-19T20:00:29.160Z,8.35
2023-02-19T20:02:57.216Z,8.32
2023-02-19T20:05:25.206Z,8.27
2023-02-19T20:07:54.468Z,8.25
2023-02-19T20:10:22.362Z,8.21
2023-02-19T20:12:50.913Z,8.16
2023-02-19T20:15:23.575Z,8.14
2023-02-19T20:17:51.520Z,8.11
2023-02-19T20:20:21.500Z,8.07
2023-02-19T20:22:53.200Z,8.06
2023-02-19T20:25:24.621Z,8.02
2023-02-19T20:27:53.423Z,7.98
2023-02-19T20:30:24.027Z,7.96
2023-02-19T20:32:53.420Z,7.93
2023-02-19T20:35:21.526Z,7.89
2023-02-19T20:37:49.456Z,7.85
2023-02-19T20:40:18.293Z,7.83
2023-02-19T20:42:46.119Z,7.78
2023-02-19T20:45:16.691Z,7.74
2023-02-19T20:47:44.938Z,7.70
2023-02-19T20:50:15.439Z,7.68
2023-02-19T20:52:43.310Z,7.65
2023-02-19T20:55:11.974Z,7.64
2023-02-19T20:57:39.837Z,7.62
2023-02-19T21:00:09.464Z,7.61
2023-02-19T21:02:37.376Z,7.59
2023-02-19T21:05:05.720Z,7.55
2023-02-19T21:07:33.625Z,7.51
2023-02-19T21:10:01.575Z,7.48
2023-02-19T21:12:29.429Z,7.47
2023-02-19T21:14:57.280Z,7.44
2023-02-19T21:17:25.230Z,7.40
2023-02-19T21:19:53.177Z,7.35
2023-02-19T21:22:23.448Z,7.33
2023-02-19T21:24:53.053Z,7.30
2023-02-19T21:27:21.348Z,7.29
2023-02-19T21:29:49.420Z,7.28
2023-02-19T21:32:17.432Z,7.27
2023-02-19T21:34:45.552Z,7.25
2023-02-19T21:37:13.400Z,7.22
2023-02-19T21:39:42.797Z,7.18
2023-02-19T21:42:10.777Z,7.18
2023-02-19T21:44:38.607Z,7.16
2023-02-19T21:47:06.828Z,7.15
2023-02-19T21:49:34.690Z,7.14
2023-02-19T21:52:02.545Z,7.12
2023-02-19T21:54:30.376Z,7.10
2023-02-19T21:57:03.028Z,7.10
2023-02-19T21:59:31.041Z,7.06
2023-02-19T22:01:59.008Z,7.01
2023-02-19T22:04:27.374Z,6.97
2023-02-19T22:06:56.555Z,6.92
2023-02-19T22:09:24.660Z,6.91
2023-02-19T22:11:52.495Z,6.88
2023-02-19T22:14:20.382Z,6.84
2023-02-19T22:16:48.200Z,6.78
2023-02-19T22:19:16.363Z,6.76
2023-02-19T22:21:45.188Z,6.72
2023-02-19T22:24:21.763Z,6.71
2023-02-19T22:26:51.037Z,6.70
2023-02-19T22:29:19.425Z,6.69
2023-02-19T22:31:47.636Z,6.65
2023-02-19T22:34:16.602Z,6.60
2023-02-19T22:36:44.839Z,6.57
2023-02-19T22:39:24.202Z,6.54
2023-02-19T22:41:53.575Z,6.52
2023-02-19T22:44:21.554Z,6.51
2023-02-19T22:46:53.692Z,6.51
2023-02-19T22:49:23.797Z,6.52
2023-02-19T22:52:01.441Z,6.52
2023-02-19T22:54:29.744Z,6.49
2023-02-19T22:56:57.637Z,6.47
2023-02-19T22:59:25.536Z,6.44
2023-02-19T23:01:54.556Z,6.43
2023-02-19T23:04:25.063Z,6.41
2023-02-19T23:06:53.138Z,6.41
2023-02-19T23:09:28.555Z,6.40
2023-02-19T23:12:10.289Z,6.36
2023-02-19T23:14:38.336Z,6.35
2023-02-19T23:17:06.560Z,6.32
2023-02-19T23:19:34.745Z,6.30
2023-02-19T23:22:03.174Z,6.29
2023-02-19T23:24:31.440Z,6.28
2023-02-19T23:27:00.626Z,6.25
2023-02-19T23:29:30.776Z,6.23
2023-02-19T23:32:00.274Z,6.21
2023-02-19T23:34:28.374Z,6.20
2023-02-19T23:36:59.401Z,6.15
2023-02-19T23:39:27.198Z,6.08
2023-02-19T23:41:57.526Z,6.07
2023-02-19T23:44:26.025Z,6.03
2023-02-19T23:46:56.336Z,5.98
2023-02-19T23:49:24.253Z,5.95
2023-02-19T23:51:52.328Z,5.92
2023-02-19T23:54:20.270Z,5.93
2023-02-19T23:56:48.048Z,5.97
2023-02-19T23:59:15.864Z,6.06
